sensor_id;sensor_type;location;lat;lon;timestamp;P1;durP1;ratioP1;P2;durP2;ratioP2
44816;SDS011;30529;53.570;9.964;2023-04-03T00:01:38;5.67;;;1.60;;
44816;SDS011;30529;53.570;9.964;2023-04-03T00:04:04;6.90;;;1.80;;
44816;SDS011;30529;53.570;9.964;2023-04-03T00:06:31;4.73;;;1.90;;
44816;SDS011;30529;53.570;9.964;2023-04-03T00:08:57;5.40;;;2.10;;
44816;SDS011;30529;53.570;9.964;2023-04-03T00:11:24;7.70;;;2.33;;
44816;SDS011;30529;53.570;9.964;2023-04-03T00:13:50;5.43;;;2.10;;
44816;SDS011;30529;53.570;9.964;2023-04-03T00:16:16;5.50;;;1.73;;
44816;SDS011;30529;53.570;9.964;2023-04-03T00:18:43;4.83;;;1.67;;
44816;SDS011;30529;53.570;9.964;2023-04-03T00:21:09;5.93;;;2.10;;
44816;SDS011;30529;53.570;9.964;2023-04-03T00:23:37;5.73;;;1.70;;
44816;SDS011;30529;53.570;9.964;2023-04-03T00:26:03;6.13;;;2.03;;
44816;SDS011;30529;53.570;9.964;2023-04-03T00:28:30;5.20;;;1.47;;
44816;SDS011;30529;53.570;9.964;2023-04-03T00:30:56;4.90;;;1.67;;
44816;SDS011;30529;53.570;9.964;2023-04-03T00:33:22;5.23;;;1.90;;
44816;SDS011;30529;53.570;9.964;2023-04-03T00:35:49;6.87;;;1.73;;
44816;SDS011;30529;53.570;9.964;2023-04-03T00:38:16;3.97;;;1.70;;
44816;SDS011;30529;53.570;9.964;2023-04-03T00:40:43;6.70;;;1.83;;
44816;SDS011;30529;53.570;9.964;2023-04-03T00:43:12;4.47;;;2.00;;
44816;SDS011;30529;53.570;9.964;2023-04-03T00:45:53;4.97;;;1.80;;
44816;SDS011;30529;53.570;9.964;2023-04-03T00:48:22;3.30;;;1.80;;
44816;SDS011;30529;53.570;9.964;2023-04-03T00:50:51;6.87;;;2.40;;
44816;SDS011;30529;53.570;9.964;2023-04-03T00:53:19;8.47;;;1.60;;
44816;SDS011;30529;53.570;9.964;2023-04-03T00:55:49;6.67;;;1.90;;
44816;SDS011;30529;53.570;9.964;2023-04-03T00:58:19;6.67;;;1.90;;
44816;SDS011;30529;53.570;9.964;2023-04-03T01:00:48;4.47;;;1.60;;
44816;SDS011;30529;53.570;9.964;2023-04-03T01:03:21;4.93;;;1.70;;
44816;SDS011;30529;53.570;9.964;2023-04-03T01:05:47;6.37;;;2.17;;
44816;SDS011;30529;53.570;9.964;2023-04-03T01:08:13;9.00;;;1.73;;
44816;SDS011;30529;53.570;9.964;2023-04-03T01:10:39;7.20;;;2.57;;
44816;SDS011;30529;53.570;9.964;2023-04-03T01:13:22;9.57;;;1.90;;
44816;SDS011;30529;53.570;9.964;2023-04-03T01:15:51;6.93;;;1.87;;
44816;SDS011;30529;53.570;9.964;2023-04-03T01:18:17;7.03;;;2.50;;
44816;SDS011;30529;53.570;9.964;2023-04-03T01:24:00;5.30;;;2.13;;
44816;SDS011;30529;53.570;9.964;2023-04-03T01:26:30;6.80;;;1.90;;
44816;SDS011;30529;53.570;9.964;2023-04-03T01:28:58;3.80;;;1.80;;
44816;SDS011;30529;53.570;9.964;2023-04-03T01:31:26;7.67;;;2.00;;
44816;SDS011;30529;53.570;9.964;2023-04-03T01:33:52;7.33;;;2.10;;
44816;SDS011;30529;53.570;9.964;2023-04-03T01:36:26;5.33;;;1.90;;
44816;SDS011;30529;53.570;9.964;2023-04-03T01:38:54;5.30;;;1.90;;
44816;SDS011;30529;53.570;9.964;2023-04-03T01:41:22;7.87;;;1.93;;
44816;SDS011;30529;53.570;9.964;2023-04-03T01:43:48;6.70;;;2.03;;
44816;SDS011;30529;53.570;9.964;2023-04-03T01:46:18;5.33;;;1.87;;
44816;SDS011;30529;53.570;9.964;2023-04-03T01:48:45;5.77;;;2.00;;
44816;SDS011;30529;53.570;9.964;2023-04-03T01:51:11;4.17;;;1.80;;
44816;SDS011;30529;53.570;9.964;2023-04-03T01:53:37;7.60;;;1.90;;
44816;SDS011;30529;53.570;9.964;2023-04-03T01:56:03;5.07;;;2.07;;
44816;SDS011;30529;53.570;9.964;2023-04-03T01:58:30;6.07;;;3.07;;
44816;SDS011;30529;53.570;9.964;2023-04-03T02:00:56;4.30;;;2.17;;
44816;SDS011;30529;53.570;9.964;2023-04-03T02:03:22;6.10;;;2.00;;
44816;SDS011;30529;53.570;9.964;2023-04-03T02:05:48;8.77;;;2.60;;
44816;SDS011;30529;53.570;9.964;2023-04-03T02:08:15;8.20;;;1.97;;
44816;SDS011;30529;53.570;9.964;2023-04-03T02:10:43;7.80;;;2.13;;
44816;SDS011;30529;53.570;9.964;2023-04-03T02:13:11;4.93;;;2.13;;
44816;SDS011;30529;53.570;9.964;2023-04-03T02:15:38;6.13;;;1.83;;
44816;SDS011;30529;53.570;9.964;2023-04-03T02:18:05;7.13;;;2.23;;
44816;SDS011;30529;53.570;9.964;2023-04-03T02:20:31;7.80;;;1.87;;
44816;SDS011;30529;53.570;9.964;2023-04-03T02:22:57;9.53;;;1.90;;
44816;SDS011;30529;53.570;9.964;2023-04-03T02:25:24;11.67;;;2.10;;
44816;SDS011;30529;53.570;9.964;2023-04-03T02:27:50;5.73;;;1.47;;
44816;SDS011;30529;53.570;9.964;2023-04-03T02:30:16;6.40;;;2.23;;
44816;SDS011;30529;53.570;9.964;2023-04-03T02:32:42;3.70;;;1.97;;
44816;SDS011;30529;53.570;9.964;2023-04-03T02:35:08;5.50;;;2.10;;
44816;SDS011;30529;53.570;9.964;2023-04-03T02:37:35;7.87;;;1.97;;
44816;SDS011;30529;53.570;9.964;2023-04-03T02:40:01;5.77;;;1.97;;
44816;SDS011;30529;53.570;9.964;2023-04-03T02:42:27;5.63;;;1.83;;
44816;SDS011;30529;53.570;9.964;2023-04-03T02:44:53;10.37;;;1.83;;
44816;SDS011;30529;53.570;9.964;2023-04-03T02:47:20;6.10;;;2.03;;
44816;SDS011;30529;53.570;9.964;2023-04-03T02:49:46;4.73;;;2.03;;
44816;SDS011;30529;53.570;9.964;2023-04-03T02:52:13;4.20;;;1.83;;
44816;SDS011;30529;53.570;9.964;2023-04-03T02:54:40;5.00;;;2.23;;
44816;SDS011;30529;53.570;9.964;2023-04-03T02:57:06;4.43;;;1.63;;
44816;SDS011;30529;53.570;9.964;2023-04-03T02:59:35;5.97;;;1.97;;
44816;SDS011;30529;53.570;9.964;2023-04-03T03:02:02;4.27;;;1.60;;
44816;SDS011;30529;53.570;9.964;2023-04-03T03:04:28;3.63;;;1.90;;
44816;SDS011;30529;53.570;9.964;2023-04-03T03:06:54;5.03;;;1.73;;
44816;SDS011;30529;53.570;9.964;2023-04-03T03:09:20;8.87;;;2.10;;
44816;SDS011;30529;53.570;9.964;2023-04-03T03:11:46;10.33;;;1.90;;
44816;SDS011;30529;53.570;9.964;2023-04-03T03:14:12;3.70;;;1.63;;
44816;SDS011;30529;53.570;9.964;2023-04-03T03:16:38;5.03;;;1.80;;
44816;SDS011;30529;53.570;9.964;2023-04-03T03:19:04;4.07;;;1.43;;
44816;SDS011;30529;53.570;9.964;2023-04-03T03:21:30;4.27;;;1.67;;
44816;SDS011;30529;53.570;9.964;2023-04-03T03:23:55;4.80;;;1.60;;
44816;SDS011;30529;53.570;9.964;2023-04-03T03:26:21;6.97;;;2.07;;
44816;SDS011;30529;53.570;9.964;2023-04-03T03:28:48;8.83;;;1.73;;
44816;SDS011;30529;53.570;9.964;2023-04-03T03:31:14;5.30;;;1.67;;
44816;SDS011;30529;53.570;9.964;2023-04-03T03:33:40;9.00;;;1.70;;
44816;SDS011;30529;53.570;9.964;2023-04-03T03:36:06;5.83;;;1.97;;
44816;SDS011;30529;53.570;9.964;2023-04-03T03:38:32;3.87;;;1.53;;
44816;SDS011;30529;53.570;9.964;2023-04-03T03:40:58;4.17;;;1.90;;
44816;SDS011;30529;53.570;9.964;2023-04-03T03:43:24;5.57;;;1.97;;
44816;SDS011;30529;53.570;9.964;2023-04-03T03:45:51;6.67;;;2.73;;
44816;SDS011;30529;53.570;9.964;2023-04-03T03:48:18;3.30;;;1.37;;
44816;SDS011;30529;53.570;9.964;2023-04-03T03:50:45;8.70;;;1.90;;
44816;SDS011;30529;53.570;9.964;2023-04-03T03:53:12;5.20;;;1.67;;
44816;SDS011;30529;53.570;9.964;2023-04-03T03:55:38;5.30;;;1.83;;
44816;SDS011;30529;53.570;9.964;2023-04-03T03:58:04;6.97;;;2.30;;
44816;SDS011;30529;53.570;9.964;2023-04-03T04:00:30;4.93;;;1.90;;
44816;SDS011;30529;53.570;9.964;2023-04-03T04:02:56;4.73;;;1.80;;
44816;SDS011;30529;53.570;9.964;2023-04-03T04:05:22;8.83;;;2.10;;
44816;SDS011;30529;53.570;9.964;2023-04-03T04:07:48;6.33;;;1.57;;
44816;SDS011;30529;53.570;9.964;2023-04-03T04:10:14;4.33;;;1.80;;
44816;SDS011;30529;53.570;9.964;2023-04-03T04:12:40;7.67;;;2.87;;
44816;SDS011;30529;53.570;9.964;2023-04-03T04:15:07;4.07;;;1.83;;
44816;SDS011;30529;53.570;9.964;2023-04-03T04:17:33;4.93;;;1.80;;
44816;SDS011;30529;53.570;9.964;2023-04-03T04:20:01;9.93;;;2.10;;
44816;SDS011;30529;53.570;9.964;2023-04-03T04:22:28;5.23;;;2.10;;
44816;SDS011;30529;53.570;9.964;2023-04-03T04:24:54;7.77;;;2.23;;
44816;SDS011;30529;53.570;9.964;2023-04-03T04:27:20;4.07;;;2.20;;
44816;SDS011;30529;53.570;9.964;2023-04-03T04:29:46;6.47;;;2.00;;
44816;SDS011;30529;53.570;9.964;2023-04-03T04:32:12;2.53;;;1.47;;
44816;SDS011;30529;53.570;9.964;2023-04-03T04:34:37;8.33;;;1.80;;
44816;SDS011;30529;53.570;9.964;2023-04-03T04:37:03;6.73;;;2.07;;
44816;SDS011;30529;53.570;9.964;2023-04-03T04:39:29;7.57;;;2.57;;
44816;SDS011;30529;53.570;9.964;2023-04-03T04:41:55;8.03;;;1.97;;
44816;SDS011;30529;53.570;9.964;2023-04-03T04:44:22;4.53;;;1.90;;
44816;SDS011;30529;53.570;9.964;2023-04-03T04:46:48;4.63;;;2.17;;
44816;SDS011;30529;53.570;9.964;2023-04-03T04:49:13;5.83;;;2.13;;
44816;SDS011;30529;53.570;9.964;2023-04-03T04:51:40;3.13;;;1.70;;
44816;SDS011;30529;53.570;9.964;2023-04-03T04:54:06;4.27;;;1.90;;
44816;SDS011;30529;53.570;9.964;2023-04-03T04:56:32;6.67;;;2.20;;
44816;SDS011;30529;53.570;9.964;2023-04-03T04:58:58;8.70;;;2.23;;
44816;SDS011;30529;53.570;9.964;2023-04-03T05:01:23;3.73;;;1.67;;
44816;SDS011;30529;53.570;9.964;2023-04-03T05:03:49;4.97;;;2.43;;
44816;SDS011;30529;53.570;9.964;2023-04-03T05:06:17;5.33;;;2.10;;
44816;SDS011;30529;53.570;9.964;2023-04-03T05:08:43;4.60;;;2.50;;
44816;SDS011;30529;53.570;9.964;2023-04-03T05:11:08;6.33;;;2.60;;
44816;SDS011;30529;53.570;9.964;2023-04-03T05:13:35;7.40;;;3.40;;
44816;SDS011;30529;53.570;9.964;2023-04-03T05:16:00;7.00;;;2.27;;
44816;SDS011;30529;53.570;9.964;2023-04-03T05:18:26;9.33;;;2.37;;
44816;SDS011;30529;53.570;9.964;2023-04-03T05:20:52;5.43;;;2.70;;
44816;SDS011;30529;53.570;9.964;2023-04-03T05:23:18;9.07;;;2.80;;
44816;SDS011;30529;53.570;9.964;2023-04-03T05:25:44;6.93;;;3.43;;
44816;SDS011;30529;53.570;9.964;2023-04-03T05:28:12;6.63;;;2.17;;
44816;SDS011;30529;53.570;9.964;2023-04-03T05:30:38;6.50;;;2.60;;
44816;SDS011;30529;53.570;9.964;2023-04-03T05:33:04;8.97;;;2.93;;
44816;SDS011;30529;53.570;9.964;2023-04-03T05:35:31;8.77;;;2.47;;
44816;SDS011;30529;53.570;9.964;2023-04-03T05:37:57;7.33;;;2.57;;
44816;SDS011;30529;53.570;9.964;2023-04-03T05:40:23;8.03;;;2.33;;
44816;SDS011;30529;53.570;9.964;2023-04-03T05:42:49;8.30;;;3.77;;
44816;SDS011;30529;53.570;9.964;2023-04-03T05:45:15;7.10;;;2.40;;
44816;SDS011;30529;53.570;9.964;2023-04-03T05:47:41;4.23;;;2.17;;
44816;SDS011;30529;53.570;9.964;2023-04-03T05:50:09;5.50;;;2.30;;
44816;SDS011;30529;53.570;9.964;2023-04-03T05:52:36;10.77;;;2.07;;
44816;SDS011;30529;53.570;9.964;2023-04-03T05:55:05;5.53;;;2.20;;
44816;SDS011;30529;53.570;9.964;2023-04-03T05:57:31;9.63;;;2.07;;
44816;SDS011;30529;53.570;9.964;2023-04-03T05:59:57;6.47;;;2.03;;
44816;SDS011;30529;53.570;9.964;2023-04-03T06:02:24;7.23;;;2.00;;
44816;SDS011;30529;53.570;9.964;2023-04-03T06:04:51;5.37;;;2.10;;
44816;SDS011;30529;53.570;9.964;2023-04-03T06:07:22;9.87;;;2.00;;
44816;SDS011;30529;53.570;9.964;2023-04-03T06:09:52;4.10;;;2.00;;
44816;SDS011;30529;53.570;9.964;2023-04-03T06:12:18;8.90;;;2.60;;
44816;SDS011;30529;53.570;9.964;2023-04-03T06:14:44;5.63;;;2.10;;
44816;SDS011;30529;53.570;9.964;2023-04-03T06:17:10;6.40;;;2.40;;
44816;SDS011;30529;53.570;9.964;2023-04-03T06:19:37;6.70;;;1.93;;
44816;SDS011;30529;53.570;9.964;2023-04-03T06:22:03;5.13;;;2.00;;
44816;SDS011;30529;53.570;9.964;2023-04-03T06:24:30;2.13;;;1.60;;
44816;SDS011;30529;53.570;9.964;2023-04-03T06:26:57;7.93;;;1.80;;
44816;SDS011;30529;53.570;9.964;2023-04-03T06:29:23;4.83;;;1.70;;
44816;SDS011;30529;53.570;9.964;2023-04-03T06:31:50;3.50;;;1.90;;
44816;SDS011;30529;53.570;9.964;2023-04-03T06:34:17;5.73;;;2.20;;
44816;SDS011;30529;53.570;9.964;2023-04-03T06:36:43;7.50;;;2.23;;
44816;SDS011;30529;53.570;9.964;2023-04-03T06:39:18;6.40;;;2.73;;
44816;SDS011;30529;53.570;9.964;2023-04-03T06:41:46;6.07;;;1.90;;
44816;SDS011;30529;53.570;9.964;2023-04-03T06:44:12;4.13;;;1.70;;
44816;SDS011;30529;53.570;9.964;2023-04-03T06:46:41;4.77;;;2.13;;
44816;SDS011;30529;53.570;9.964;2023-04-03T06:49:08;6.10;;;1.80;;
44816;SDS011;30529;53.570;9.964;2023-04-03T06:51:34;3.70;;;1.80;;
44816;SDS011;30529;53.570;9.964;2023-04-03T06:54:01;5.93;;;2.00;;
44816;SDS011;30529;53.570;9.964;2023-04-03T06:56:28;4.60;;;1.43;;
44816;SDS011;30529;53.570;9.964;2023-04-03T06:58:54;6.13;;;1.90;;
44816;SDS011;30529;53.570;9.964;2023-04-03T07:01:23;5.40;;;1.80;;
44816;SDS011;30529;53.570;9.964;2023-04-03T07:03:51;4.33;;;1.70;;
44816;SDS011;30529;53.570;9.964;2023-04-03T07:06:17;6.77;;;1.53;;
44816;SDS011;30529;53.570;9.964;2023-04-03T07:08:44;3.67;;;1.27;;
44816;SDS011;30529;53.570;9.964;2023-04-03T07:11:11;7.60;;;1.67;;
44816;SDS011;30529;53.570;9.964;2023-04-03T07:13:37;5.33;;;1.60;;
44816;SDS011;30529;53.570;9.964;2023-04-03T07:16:04;5.90;;;1.77;;
44816;SDS011;30529;53.570;9.964;2023-04-03T07:18:32;5.60;;;1.63;;
44816;SDS011;30529;53.570;9.964;2023-04-03T07:20:58;4.80;;;1.60;;
44816;SDS011;30529;53.570;9.964;2023-04-03T07:23:24;5.50;;;1.20;;
44816;SDS011;30529;53.570;9.964;2023-04-03T07:25:51;5.17;;;1.43;;
44816;SDS011;30529;53.570;9.964;2023-04-03T07:28:18;6.03;;;1.63;;
44816;SDS011;30529;53.570;9.964;2023-04-03T07:30:45;4.07;;;1.40;;
44816;SDS011;30529;53.570;9.964;2023-04-03T07:33:14;3.10;;;1.30;;
44816;SDS011;30529;53.570;9.964;2023-04-03T07:35:41;1.37;;;1.13;;
44816;SDS011;30529;53.570;9.964;2023-04-03T07:38:08;2.37;;;1.23;;
44816;SDS011;30529;53.570;9.964;2023-04-03T07:40:35;3.10;;;1.07;;
44816;SDS011;30529;53.570;9.964;2023-04-03T07:43:01;5.30;;;1.40;;
44816;SDS011;30529;53.570;9.964;2023-04-03T07:45:28;7.17;;;1.17;;
44816;SDS011;30529;53.570;9.964;2023-04-03T07:47:54;6.00;;;1.40;;
44816;SDS011;30529;53.570;9.964;2023-04-03T07:50:21;8.23;;;1.13;;
44816;SDS011;30529;53.570;9.964;2023-04-03T07:52:48;3.67;;;1.10;;
44816;SDS011;30529;53.570;9.964;2023-04-03T07:55:16;2.53;;;1.00;;
44816;SDS011;30529;53.570;9.964;2023-04-03T07:57:42;4.03;;;1.30;;
44816;SDS011;30529;53.570;9.964;2023-04-03T08:00:08;1.87;;;1.17;;
44816;SDS011;30529;53.570;9.964;2023-04-03T08:02:35;4.03;;;1.20;;
44816;SDS011;30529;53.570;9.964;2023-04-03T08:05:01;6.10;;;1.67;;
44816;SDS011;30529;53.570;9.964;2023-04-03T08:07:27;4.53;;;1.20;;
44816;SDS011;30529;53.570;9.964;2023-04-03T08:09:52;3.73;;;1.10;;
44816;SDS011;30529;53.570;9.964;2023-04-03T08:12:18;3.50;;;1.23;;
44816;SDS011;30529;53.570;9.964;2023-04-03T08:14:45;3.77;;;0.80;;
44816;SDS011;30529;53.570;9.964;2023-04-03T08:17:11;3.17;;;1.53;;
44816;SDS011;30529;53.570;9.964;2023-04-03T08:19:37;4.93;;;1.30;;
44816;SDS011;30529;53.570;9.964;2023-04-03T08:22:05;6.43;;;1.30;;
44816;SDS011;30529;53.570;9.964;2023-04-03T08:24:32;2.47;;;1.50;;
44816;SDS011;30529;53.570;9.964;2023-04-03T08:26:59;5.07;;;1.47;;
44816;SDS011;30529;53.570;9.964;2023-04-03T08:29:25;4.87;;;1.20;;
44816;SDS011;30529;53.570;9.964;2023-04-03T08:31:51;2.27;;;1.03;;
44816;SDS011;30529;53.570;9.964;2023-04-03T08:34:18;5.37;;;1.70;;
44816;SDS011;30529;53.570;9.964;2023-04-03T08:36:45;3.37;;;1.20;;
44816;SDS011;30529;53.570;9.964;2023-04-03T08:39:11;5.53;;;1.10;;
44816;SDS011;30529;53.570;9.964;2023-04-03T08:49:26;1.77;;;0.97;;
44816;SDS011;30529;53.570;9.964;2023-04-03T08:51:56;2.30;;;1.03;;
44816;SDS011;30529;53.570;9.964;2023-04-03T08:54:27;4.90;;;1.53;;
44816;SDS011;30529;53.570;9.964;2023-04-03T08:56:57;4.07;;;1.27;;
44816;SDS011;30529;53.570;9.964;2023-04-03T08:59:26;4.67;;;1.10;;
44816;SDS011;30529;53.570;9.964;2023-04-03T09:01:56;3.70;;;1.00;;
44816;SDS011;30529;53.570;9.964;2023-04-03T09:04:24;3.57;;;1.10;;
44816;SDS011;30529;53.570;9.964;2023-04-03T09:06:57;2.00;;;1.17;;
44816;SDS011;30529;53.570;9.964;2023-04-03T09:09:41;3.33;;;1.10;;
44816;SDS011;30529;53.570;9.964;2023-04-03T09:20:19;4.53;;;1.07;;
44816;SDS011;30529;53.570;9.964;2023-04-03T09:23:13;5.53;;;1.30;;
44816;SDS011;30529;53.570;9.964;2023-04-03T09:25:44;1.93;;;0.70;;
44816;SDS011;30529;53.570;9.964;2023-04-03T09:28:11;2.47;;;1.03;;
44816;SDS011;30529;53.570;9.964;2023-04-03T09:30:37;2.47;;;0.90;;
44816;SDS011;30529;53.570;9.964;2023-04-03T09:33:04;3.77;;;0.80;;
44816;SDS011;30529;53.570;9.964;2023-04-03T09:35:33;2.50;;;1.30;;
44816;SDS011;30529;53.570;9.964;2023-04-03T09:38:14;2.97;;;1.00;;
44816;SDS011;30529;53.570;9.964;2023-04-03T09:41:05;2.60;;;1.03;;
44816;SDS011;30529;53.570;9.964;2023-04-03T09:43:32;3.10;;;1.10;;
44816;SDS011;30529;53.570;9.964;2023-04-03T09:46:15;2.33;;;0.90;;
44816;SDS011;30529;53.570;9.964;2023-04-03T09:48:56;2.00;;;0.70;;
44816;SDS011;30529;53.570;9.964;2023-04-03T09:51:30;3.30;;;1.07;;
44816;SDS011;30529;53.570;9.964;2023-04-03T09:53:57;2.40;;;1.10;;
44816;SDS011;30529;53.570;9.964;2023-04-03T09:56:32;3.80;;;1.17;;
44816;SDS011;30529;53.570;9.964;2023-04-03T10:01:38;1.03;;;0.87;;
44816;SDS011;30529;53.570;9.964;2023-04-03T10:06:47;1.63;;;0.83;;
44816;SDS011;30529;53.570;9.964;2023-04-03T10:09:22;3.63;;;1.03;;
44816;SDS011;30529;53.570;9.964;2023-04-03T10:11:58;5.40;;;0.80;;
44816;SDS011;30529;53.570;9.964;2023-04-03T10:14:27;2.03;;;0.83;;
44816;SDS011;30529;53.570;9.964;2023-04-03T10:19:47;3.37;;;0.90;;
44816;SDS011;30529;53.570;9.964;2023-04-03T10:25:21;2.40;;;0.83;;
44816;SDS011;30529;53.570;9.964;2023-04-03T10:30:40;5.47;;;1.33;;
44816;SDS011;30529;53.570;9.964;2023-04-03T10:36:29;1.97;;;0.87;;
44816;SDS011;30529;53.570;9.964;2023-04-03T10:39:14;2.60;;;0.80;;
44816;SDS011;30529;53.570;9.964;2023-04-03T10:53:07;3.23;;;0.83;;
44816;SDS011;30529;53.570;9.964;2023-04-03T10:56:05;1.17;;;0.70;;
44816;SDS011;30529;53.570;9.964;2023-04-03T10:58:48;2.60;;;0.70;;
44816;SDS011;30529;53.570;9.964;2023-04-03T11:01:26;4.07;;;0.90;;
44816;SDS011;30529;53.570;9.964;2023-04-03T11:03:58;3.30;;;0.80;;
44816;SDS011;30529;53.570;9.964;2023-04-03T11:06:28;3.67;;;1.20;;
44816;SDS011;30529;53.570;9.964;2023-04-03T11:09:02;2.70;;;0.97;;
44816;SDS011;30529;53.570;9.964;2023-04-03T11:12:21;1.80;;;1.00;;
44816;SDS011;30529;53.570;9.964;2023-04-03T11:14:53;1.47;;;0.97;;
44816;SDS011;30529;53.570;9.964;2023-04-03T11:17:24;2.53;;;1.03;;
44816;SDS011;30529;53.570;9.964;2023-04-03T11:20:06;3.73;;;1.30;;
44816;SDS011;30529;53.570;9.964;2023-04-03T11:22:43;3.10;;;0.80;;
44816;SDS011;30529;53.570;9.964;2023-04-03T11:25:17;2.80;;;1.00;;
44816;SDS011;30529;53.570;9.964;2023-04-03T11:27:48;5.17;;;1.20;;
44816;SDS011;30529;53.570;9.964;2023-04-03T11:30:20;2.43;;;1.00;;
44816;SDS011;30529;53.570;9.964;2023-04-03T11:33:00;2.80;;;1.00;;
44816;SDS011;30529;53.570;9.964;2023-04-03T11:35:45;3.83;;;1.27;;
44816;SDS011;30529;53.570;9.964;2023-04-03T11:38:25;4.20;;;1.10;;
44816;SDS011;30529;53.570;9.964;2023-04-03T11:40:56;4.57;;;1.10;;
44816;SDS011;30529;53.570;9.964;2023-04-03T11:43:25;2.57;;;0.97;;
44816;SDS011;30529;53.570;9.964;2023-04-03T11:46:01;1.70;;;0.93;;
44816;SDS011;30529;53.570;9.964;2023-04-03T11:50:57;3.13;;;0.87;;
44816;SDS011;30529;53.570;9.964;2023-04-03T11:55:59;3.17;;;1.00;;
44816;SDS011;30529;53.570;9.964;2023-04-03T11:58:43;1.93;;;0.90;;
44816;SDS011;30529;53.570;9.964;2023-04-03T12:04:22;5.23;;;1.00;;
44816;SDS011;30529;53.570;9.964;2023-04-03T12:06:53;3.40;;;1.30;;
44816;SDS011;30529;53.570;9.964;2023-04-03T12:14:54;2.90;;;1.13;;
44816;SDS011;30529;53.570;9.964;2023-04-03T12:17:25;3.03;;;1.17;;
44816;SDS011;30529;53.570;9.964;2023-04-03T12:19:52;3.20;;;1.10;;
44816;SDS011;30529;53.570;9.964;2023-04-03T12:22:19;0.90;;;0.73;;
44816;SDS011;30529;53.570;9.964;2023-04-03T12:24:47;1.47;;;0.90;;
44816;SDS011;30529;53.570;9.964;2023-04-03T12:29:58;3.47;;;1.40;;
44816;SDS011;30529;53.570;9.964;2023-04-03T12:32:48;3.77;;;1.20;;
44816;SDS011;30529;53.570;9.964;2023-04-03T12:35:27;4.43;;;1.30;;
44816;SDS011;30529;53.570;9.964;2023-04-03T12:46:59;2.67;;;1.03;;
44816;SDS011;30529;53.570;9.964;2023-04-03T12:52:06;4.03;;;0.90;;
44816;SDS011;30529;53.570;9.964;2023-04-03T12:55:15;2.07;;;1.00;;
44816;SDS011;30529;53.570;9.964;2023-04-03T12:57:42;2.10;;;1.00;;
44816;SDS011;30529;53.570;9.964;2023-04-03T13:00:19;2.23;;;0.90;;
44816;SDS011;30529;53.570;9.964;2023-04-03T13:02:45;2.60;;;1.00;;
44816;SDS011;30529;53.570;9.964;2023-04-03T13:05:16;2.17;;;1.00;;
44816;SDS011;30529;53.570;9.964;2023-04-03T13:07:44;1.67;;;0.93;;
44816;SDS011;30529;53.570;9.964;2023-04-03T13:10:16;1.73;;;0.87;;
44816;SDS011;30529;53.570;9.964;2023-04-03T13:12:48;3.37;;;1.17;;
44816;SDS011;30529;53.570;9.964;2023-04-03T13:15:19;3.67;;;0.90;;
44816;SDS011;30529;53.570;9.964;2023-04-03T13:17:48;1.43;;;0.87;;
44816;SDS011;30529;53.570;9.964;2023-04-03T13:20:18;1.80;;;0.80;;
44816;SDS011;30529;53.570;9.964;2023-04-03T13:25:30;2.63;;;0.80;;
44816;SDS011;30529;53.570;9.964;2023-04-03T13:27:59;1.73;;;1.00;;
44816;SDS011;30529;53.570;9.964;2023-04-03T13:30:32;2.60;;;1.10;;
44816;SDS011;30529;53.570;9.964;2023-04-03T13:33:00;2.20;;;0.67;;
44816;SDS011;30529;53.570;9.964;2023-04-03T13:35:35;3.17;;;0.80;;
44816;SDS011;30529;53.570;9.964;2023-04-03T13:38:19;1.47;;;0.90;;
44816;SDS011;30529;53.570;9.964;2023-04-03T13:40:50;1.57;;;0.80;;
44816;SDS011;30529;53.570;9.964;2023-04-03T13:43:24;3.03;;;1.00;;
44816;SDS011;30529;53.570;9.964;2023-04-03T13:46:00;3.57;;;1.20;;
44816;SDS011;30529;53.570;9.964;2023-04-03T13:48:37;2.33;;;1.00;;
44816;SDS011;30529;53.570;9.964;2023-04-03T13:53:47;2.90;;;0.90;;
44816;SDS011;30529;53.570;9.964;2023-04-03T13:56:18;6.20;;;1.20;;
44816;SDS011;30529;53.570;9.964;2023-04-03T13:59:03;3.13;;;0.90;;
44816;SDS011;30529;53.570;9.964;2023-04-03T14:02:14;5.80;;;0.93;;
44816;SDS011;30529;53.570;9.964;2023-04-03T14:04:32;2.00;;;0.90;;
44816;SDS011;30529;53.570;9.964;2023-04-03T14:07:21;3.37;;;1.20;;
44816;SDS011;30529;53.570;9.964;2023-04-03T14:09:49;3.77;;;1.07;;
44816;SDS011;30529;53.570;9.964;2023-04-03T14:12:16;2.03;;;0.70;;
44816;SDS011;30529;53.570;9.964;2023-04-03T14:14:54;3.23;;;1.63;;
44816;SDS011;30529;53.570;9.964;2023-04-03T14:17:23;1.57;;;0.90;;
44816;SDS011;30529;53.570;9.964;2023-04-03T14:19:51;4.13;;;1.00;;
44816;SDS011;30529;53.570;9.964;2023-04-03T14:22:28;1.70;;;1.10;;
44816;SDS011;30529;53.570;9.964;2023-04-03T14:24:56;2.03;;;0.83;;
44816;SDS011;30529;53.570;9.964;2023-04-03T14:27:24;1.97;;;0.90;;
44816;SDS011;30529;53.570;9.964;2023-04-03T14:29:53;1.67;;;0.90;;
44816;SDS011;30529;53.570;9.964;2023-04-03T14:32:20;3.70;;;0.80;;
44816;SDS011;30529;53.570;9.964;2023-04-03T14:34:48;2.40;;;1.10;;
44816;SDS011;30529;53.570;9.964;2023-04-03T14:37:16;3.20;;;0.87;;
44816;SDS011;30529;53.570;9.964;2023-04-03T14:39:48;3.43;;;1.00;;
44816;SDS011;30529;53.570;9.964;2023-04-03T14:42:17;2.17;;;1.00;;
44816;SDS011;30529;53.570;9.964;2023-04-03T14:44:46;2.93;;;1.00;;
44816;SDS011;30529;53.570;9.964;2023-04-03T14:47:12;2.23;;;1.00;;
44816;SDS011;30529;53.570;9.964;2023-04-03T14:49:41;2.50;;;1.00;;
44816;SDS011;30529;53.570;9.964;2023-04-03T14:52:12;2.83;;;1.00;;
44816;SDS011;30529;53.570;9.964;2023-04-03T14:54:51;3.83;;;0.90;;
44816;SDS011;30529;53.570;9.964;2023-04-03T14:57:17;3.60;;;1.07;;
44816;SDS011;30529;53.570;9.964;2023-04-03T14:59:44;2.60;;;1.13;;
44816;SDS011;30529;53.570;9.964;2023-04-03T15:04:55;2.50;;;1.10;;
44816;SDS011;30529;53.570;9.964;2023-04-03T15:07:22;3.80;;;0.97;;
44816;SDS011;30529;53.570;9.964;2023-04-03T15:09:49;4.97;;;1.00;;
44816;SDS011;30529;53.570;9.964;2023-04-03T15:12:16;1.40;;;0.93;;
44816;SDS011;30529;53.570;9.964;2023-04-03T15:14:42;2.73;;;1.10;;
44816;SDS011;30529;53.570;9.964;2023-04-03T15:17:10;2.20;;;1.30;;
44816;SDS011;30529;53.570;9.964;2023-04-03T15:19:42;3.20;;;1.00;;
44816;SDS011;30529;53.570;9.964;2023-04-03T15:22:15;1.70;;;1.07;;
44816;SDS011;30529;53.570;9.964;2023-04-03T15:24:42;5.57;;;1.30;;
44816;SDS011;30529;53.570;9.964;2023-04-03T15:27:09;1.10;;;0.87;;
44816;SDS011;30529;53.570;9.964;2023-04-03T15:29:37;4.03;;;1.63;;
44816;SDS011;30529;53.570;9.964;2023-04-03T15:32:05;4.33;;;1.40;;
44816;SDS011;30529;53.570;9.964;2023-04-03T15:34:31;2.83;;;1.00;;
44816;SDS011;30529;53.570;9.964;2023-04-03T15:36:57;3.33;;;1.07;;
44816;SDS011;30529;53.570;9.964;2023-04-03T15:39:26;6.17;;;1.30;;
44816;SDS011;30529;53.570;9.964;2023-04-03T15:41:53;2.87;;;1.50;;
44816;SDS011;30529;53.570;9.964;2023-04-03T15:44:20;2.30;;;1.17;;
44816;SDS011;30529;53.570;9.964;2023-04-03T15:46:47;2.33;;;0.90;;
44816;SDS011;30529;53.570;9.964;2023-04-03T15:49:17;2.70;;;1.07;;
44816;SDS011;30529;53.570;9.964;2023-04-03T15:51:46;4.57;;;1.20;;
44816;SDS011;30529;53.570;9.964;2023-04-03T15:54:12;4.73;;;1.40;;
44816;SDS011;30529;53.570;9.964;2023-04-03T15:56:38;2.83;;;1.23;;
44816;SDS011;30529;53.570;9.964;2023-04-03T15:59:04;3.77;;;1.30;;
44816;SDS011;30529;53.570;9.964;2023-04-03T16:01:30;3.67;;;1.30;;
44816;SDS011;30529;53.570;9.964;2023-04-03T16:03:57;2.80;;;1.20;;
44816;SDS011;30529;53.570;9.964;2023-04-03T16:06:23;2.80;;;1.30;;
44816;SDS011;30529;53.570;9.964;2023-04-03T16:08:50;6.23;;;1.20;;
44816;SDS011;30529;53.570;9.964;2023-04-03T16:11:16;3.20;;;1.00;;
44816;SDS011;30529;53.570;9.964;2023-04-03T16:13:42;2.43;;;1.10;;
44816;SDS011;30529;53.570;9.964;2023-04-03T16:16:09;2.90;;;1.17;;
44816;SDS011;30529;53.570;9.964;2023-04-03T16:18:35;2.83;;;1.13;;
44816;SDS011;30529;53.570;9.964;2023-04-03T16:21:01;3.37;;;1.17;;
44816;SDS011;30529;53.570;9.964;2023-04-03T16:23:28;4.00;;;1.00;;